sensor_id;sensor_type;location;lat;lon;timestamp;pressure;altitude;pressure_sealevel;temperature;humidity
20983;BME280;10650;51.528;6.748;2023-03-21T00:01:57;101499.16;;;11.44;75.89
20983;BME280;10650;51.528;6.748;2023-03-21T00:04:25;101492.00;;;11.45;75.56
20983;BME280;10650;51.528;6.748;2023-03-21T00:07:03;101494.69;;;11.46;75.60
20983;BME280;10650;51.528;6.748;2023-03-21T00:09:32;101487.56;;;11.48;75.67
20983;BME280;10650;51.528;6.748;2023-03-21T00:12:00;101489.34;;;11.48;75.52
20983;BME280;10650;51.528;6.748;2023-03-21T00:14:32;101490.22;;;11.51;75.20
20983;BME280;10650;51.528;6.748;2023-03-21T00:17:00;101490.22;;;11.51;75.25
20983;BME280;10650;51.528;6.748;2023-03-21T00:19:29;101487.56;;;11.51;75.36
20983;BME280;10650;51.528;6.748;2023-03-21T00:21:57;101491.13;;;11.53;75.12
20983;BME280;10650;51.528;6.748;2023-03-21T00:24:35;101489.34;;;11.51;74.73
20983;BME280;10650;51.528;6.748;2023-03-21T00:27:04;101482.22;;;11.48;74.70
20983;BME280;10650;51.528;6.748;2023-03-21T00:29:52;101482.22;;;11.48;74.41
20983;BME280;10650;51.528;6.748;2023-03-21T00:32:21;101487.56;;;11.50;74.60
20983;BME280;10650;51.528;6.748;2023-03-21T00:34:48;101478.66;;;11.51;74.31
20983;BME280;10650;51.528;6.748;2023-03-21T00:37:37;101475.97;;;11.52;74.47
20983;BME280;10650;51.528;6.748;2023-03-21T00:40:08;101475.09;;;11.53;74.04
20983;BME280;10650;51.528;6.748;2023-03-21T00:42:51;101473.28;;;11.54;74.11
20983;BME280;10650;51.528;6.748;2023-03-21T00:45:18;101462.59;;;11.54;73.71
20983;BME280;10650;51.528;6.748;2023-03-21T00:47:47;101466.16;;;11.50;73.68
20983;BME280;10650;51.528;6.748;2023-03-21T00:50:15;101454.56;;;11.49;73.91
20983;BME280;10650;51.528;6.748;2023-03-21T00:52:43;101453.66;;;11.50;73.58
20983;BME280;10650;51.528;6.748;2023-03-21T00:55:13;101455.47;;;11.47;74.17
20983;BME280;10650;51.528;6.748;2023-03-21T00:57:41;101453.66;;;11.44;74.45
20983;BME280;10650;51.528;6.748;2023-03-21T01:00:16;101453.66;;;11.44;74.67
20983;BME280;10650;51.528;6.748;2023-03-21T01:02:44;101450.13;;;11.43;74.80
20983;BME280;10650;51.528;6.748;2023-03-21T01:05:33;101447.44;;;11.45;74.81
20983;BME280;10650;51.528;6.748;2023-03-21T01:08:19;101442.09;;;11.45;74.80
20983;BME280;10650;51.528;6.748;2023-03-21T01:11:00;101440.28;;;11.46;74.99
20983;BME280;10650;51.528;6.748;2023-03-21T01:13:28;101439.41;;;11.45;75.06
20983;BME280;10650;51.528;6.748;2023-03-21T01:15:58;101436.75;;;11.42;75.02
20983;BME280;10650;51.528;6.748;2023-03-21T01:18:28;101435.81;;;11.45;74.84
20983;BME280;10650;51.528;6.748;2023-03-21T01:20:58;101439.41;;;11.43;75.50
20983;BME280;10650;51.528;6.748;2023-03-21T01:23:27;101439.41;;;11.42;75.14
20983;BME280;10650;51.528;6.748;2023-03-21T01:25:55;101437.63;;;11.42;75.36
20983;BME280;10650;51.528;6.748;2023-03-21T01:28:26;101437.63;;;11.41;75.72
20983;BME280;10650;51.528;6.748;2023-03-21T01:30:55;101431.38;;;11.39;75.81
20983;BME280;10650;51.528;6.748;2023-03-21T01:33:23;101424.28;;;11.35;76.09
20983;BME280;10650;51.528;6.748;2023-03-21T01:35:51;101429.63;;;11.35;76.16
20983;BME280;10650;51.528;6.748;2023-03-21T01:38:37;101432.28;;;11.35;76.47
20983;BME280;10650;51.528;6.748;2023-03-21T01:41:05;101430.50;;;11.35;76.22
20983;BME280;10650;51.528;6.748;2023-03-21T01:43:46;101433.16;;;11.37;76.18
20983;BME280;10650;51.528;6.748;2023-03-21T01:46:44;101428.72;;;11.34;76.30
20983;BME280;10650;51.528;6.748;2023-03-21T01:49:30;101419.78;;;11.35;76.18
20983;BME280;10650;51.528;6.748;2023-03-21T01:52:04;101425.13;;;11.38;76.17
20983;BME280;10650;51.528;6.748;2023-03-21T01:54:39;101425.16;;;11.37;75.89
20983;BME280;10650;51.528;6.748;2023-03-21T01:57:12;101417.13;;;11.37;76.07
20983;BME280;10650;51.528;6.748;2023-03-21T01:59:45;101425.16;;;11.35;75.65
20983;BME280;10650;51.528;6.748;2023-03-21T02:02:17;101424.28;;;11.35;75.74
20983;BME280;10650;51.528;6.748;2023-03-21T02:04:49;101422.47;;;11.32;75.85
20983;BME280;10650;51.528;6.748;2023-03-21T02:07:24;101410.88;;;11.29;75.94
20983;BME280;10650;51.528;6.748;2023-03-21T02:09:55;101411.75;;;11.26;76.09
20983;BME280;10650;51.528;6.748;2023-03-21T02:12:24;101410.00;;;11.27;76.18
20983;BME280;10650;51.528;6.748;2023-03-21T02:14:53;101407.34;;;11.25;76.26
20983;BME280;10650;51.528;6.748;2023-03-21T02:17:27;101404.66;;;11.23;76.35
20983;BME280;10650;51.528;6.748;2023-03-21T02:23:29;101400.22;;;11.16;77.18
20983;BME280;10650;51.528;6.748;2023-03-21T02:29:42;101393.06;;;11.17;77.56
20983;BME280;10650;51.528;6.748;2023-03-21T02:32:24;101395.75;;;11.12;77.66
20983;BME280;10650;51.528;6.748;2023-03-21T02:35:18;101386.81;;;11.12;77.98
20983;BME280;10650;51.528;6.748;2023-03-21T02:37:54;101377.91;;;11.14;78.42
20983;BME280;10650;51.528;6.748;2023-03-21T02:40:30;101369.88;;;11.16;78.22
20983;BME280;10650;51.528;6.748;2023-03-21T02:43:04;101375.22;;;11.16;78.46
20983;BME280;10650;51.528;6.748;2023-03-21T02:45:49;101376.13;;;11.19;78.88
20983;BME280;10650;51.528;6.748;2023-03-21T02:48:20;101377.91;;;11.22;78.87
20983;BME280;10650;51.528;6.748;2023-03-21T02:51:00;101376.13;;;11.22;78.92
20983;BME280;10650;51.528;6.748;2023-03-21T02:53:33;101368.09;;;11.24;78.46
20983;BME280;10650;51.528;6.748;2023-03-21T02:56:06;101366.31;;;11.24;78.86
20983;BME280;10650;51.528;6.748;2023-03-21T02:58:37;101361.88;;;11.25;78.71
20983;BME280;10650;51.528;6.748;2023-03-21T03:01:05;101359.19;;;11.25;79.12
20983;BME280;10650;51.528;6.748;2023-03-21T03:03:34;101353.84;;;11.27;78.91
20983;BME280;10650;51.528;6.748;2023-03-21T03:06:08;101357.41;;;11.22;78.91
20983;BME280;10650;51.528;6.748;2023-03-21T03:08:52;101348.50;;;11.22;79.04
20983;BME280;10650;51.528;6.748;2023-03-21T03:11:30;101348.50;;;11.23;78.91
20983;BME280;10650;51.528;6.748;2023-03-21T03:14:10;101354.72;;;11.22;78.63
20983;BME280;10650;51.528;6.748;2023-03-21T03:17:14;101354.72;;;11.24;79.16
20983;BME280;10650;51.528;6.748;2023-03-21T03:19:53;101349.38;;;11.27;78.96
20983;BME280;10650;51.528;6.748;2023-03-21T03:22:39;101345.78;;;11.31;79.06
20983;BME280;10650;51.528;6.748;2023-03-21T03:25:12;101343.09;;;11.34;78.92
20983;BME280;10650;51.528;6.748;2023-03-21T03:27:53;101345.78;;;11.34;78.72
20983;BME280;10650;51.528;6.748;2023-03-21T03:30:24;101344.03;;;11.35;78.63
20983;BME280;10650;51.528;6.748;2023-03-21T03:33:09;101336.88;;;11.35;78.50
20983;BME280;10650;51.528;6.748;2023-03-21T03:35:37;101348.47;;;11.34;78.59
20983;BME280;10650;51.528;6.748;2023-03-21T03:38:06;101344.03;;;11.35;78.98
20983;BME280;10650;51.528;6.748;2023-03-21T03:40:38;101343.13;;;11.33;78.70
20983;BME280;10650;51.528;6.748;2023-03-21T03:43:09;101338.63;;;11.33;78.43
20983;BME280;10650;51.528;6.748;2023-03-21T03:45:43;101328.84;;;11.34;78.48
20983;BME280;10650;51.528;6.748;2023-03-21T03:48:18;101334.19;;;11.34;78.48
20983;BME280;10650;51.528;6.748;2023-03-21T03:50:53;101330.63;;;11.30;78.47
20983;BME280;10650;51.528;6.748;2023-03-21T03:53:27;101338.66;;;11.32;78.09
20983;BME280;10650;51.528;6.748;2023-03-21T03:55:58;101326.19;;;11.31;77.76
20983;BME280;10650;51.528;6.748;2023-03-21T03:58:28;101326.19;;;11.31;77.72
20983;BME280;10650;51.528;6.748;2023-03-21T04:01:11;101323.50;;;11.34;77.68
20983;BME280;10650;51.528;6.748;2023-03-21T04:03:40;101323.50;;;11.34;77.22
20983;BME280;10650;51.528;6.748;2023-03-21T04:06:18;101327.06;;;11.36;77.14
20983;BME280;10650;51.528;6.748;2023-03-21T04:08:47;101332.41;;;11.36;77.05
20983;BME280;10650;51.528;6.748;2023-03-21T04:11:17;101333.31;;;11.36;77.00
20983;BME280;10650;51.528;6.748;2023-03-21T04:13:45;101323.50;;;11.37;77.08
20983;BME280;10650;51.528;6.748;2023-03-21T04:16:13;101320.81;;;11.35;76.90
20983;BME280;10650;51.528;6.748;2023-03-21T04:18:41;101327.06;;;11.34;76.79
20983;BME280;10650;51.528;6.748;2023-03-21T04:21:10;101324.38;;;11.34;76.69
20983;BME280;10650;51.528;6.748;2023-03-21T04:23:39;101327.94;;;11.33;76.48
20983;BME280;10650;51.528;6.748;2023-03-21T04:26:07;101317.25;;;11.32;76.43
20983;BME280;10650;51.528;6.748;2023-03-21T04:28:37;101318.16;;;11.35;76.88
20983;BME280;10650;51.528;6.748;2023-03-21T04:31:06;101314.56;;;11.33;76.50
20983;BME280;10650;51.528;6.748;2023-03-21T04:33:50;101311.91;;;11.35;76.72
20983;BME280;10650;51.528;6.748;2023-03-21T04:36:18;101315.47;;;11.35;76.49
20983;BME280;10650;51.528;6.748;2023-03-21T04:38:53;101325.28;;;11.36;76.99
20983;BME280;10650;51.528;6.748;2023-03-21T04:41:22;101319.03;;;11.34;77.60
20983;BME280;10650;51.528;6.748;2023-03-21T04:43:51;101318.19;;;11.28;78.17
20983;BME280;10650;51.528;6.748;2023-03-21T04:46:19;101317.28;;;11.27;78.06
20983;BME280;10650;51.528;6.748;2023-03-21T04:48:48;101319.06;;;11.25;78.72
20983;BME280;10650;51.528;6.748;2023-03-21T04:51:16;101311.94;;;11.24;79.64
20983;BME280;10650;51.528;6.748;2023-03-21T04:53:43;101317.28;;;11.21;80.09
20983;BME280;10650;51.528;6.748;2023-03-21T04:56:15;101304.81;;;11.15;80.52
20983;BME280;10650;51.528;6.748;2023-03-21T04:58:43;101308.38;;;11.14;81.19
20983;BME280;10650;51.528;6.748;2023-03-21T05:01:12;101306.59;;;11.13;81.37
20983;BME280;10650;51.528;6.748;2023-03-21T05:03:40;101306.59;;;11.13;81.75
20983;BME280;10650;51.528;6.748;2023-03-21T05:06:09;101305.72;;;11.13;81.57
20983;BME280;10650;51.528;6.748;2023-03-21T05:08:37;101296.84;;;11.09;81.93
20983;BME280;10650;51.528;6.748;2023-03-21T05:11:05;101300.38;;;11.11;82.41
20983;BME280;10650;51.528;6.748;2023-03-21T05:13:32;101302.16;;;11.11;82.49
20983;BME280;10650;51.528;6.748;2023-03-21T05:16:00;101305.72;;;11.13;82.59
20983;BME280;10650;51.528;6.748;2023-03-21T05:18:29;101302.19;;;11.09;83.40
20983;BME280;10650;51.528;6.748;2023-03-21T05:21:00;101294.16;;;11.09;83.63
20983;BME280;10650;51.528;6.748;2023-03-21T05:23:29;101291.47;;;11.09;84.06
20983;BME280;10650;51.528;6.748;2023-03-21T05:25:57;101296.84;;;11.09;84.30
20983;BME280;10650;51.528;6.748;2023-03-21T05:28:25;101285.22;;;11.08;84.83
20983;BME280;10650;51.528;6.748;2023-03-21T05:30:56;101294.16;;;11.12;84.86
20983;BME280;10650;51.528;6.748;2023-03-21T05:33:24;101295.03;;;11.11;84.38
20983;BME280;10650;51.528;6.748;2023-03-21T05:35:53;101294.13;;;11.06;84.73
20983;BME280;10650;51.528;6.748;2023-03-21T05:38:21;101292.38;;;11.02;85.33
20983;BME280;10650;51.528;6.748;2023-03-21T05:40:50;101292.38;;;11.02;85.58
20983;BME280;10650;51.528;6.748;2023-03-21T05:43:18;101294.16;;;11.01;85.95
20983;BME280;10650;51.528;6.748;2023-03-21T05:45:45;101294.16;;;11.00;85.63
20983;BME280;10650;51.528;6.748;2023-03-21T05:48:14;101295.03;;;11.00;85.05
20983;BME280;10650;51.528;6.748;2023-03-21T05:50:42;101287.03;;;10.99;85.40
20983;BME280;10650;51.528;6.748;2023-03-21T05:53:11;101296.81;;;11.03;85.20
20983;BME280;10650;51.528;6.748;2023-03-21T05:55:39;101285.25;;;11.04;85.20
20983;BME280;10650;51.528;6.748;2023-03-21T05:58:07;101283.44;;;11.03;85.63
20983;BME280;10650;51.528;6.748;2023-03-21T06:00:34;101292.38;;;11.05;85.61
20983;BME280;10650;51.528;6.748;2023-03-21T06:03:02;101289.69;;;11.10;85.69
20983;BME280;10650;51.528;6.748;2023-03-21T06:05:30;101289.69;;;11.13;86.09
20983;BME280;10650;51.528;6.748;2023-03-21T06:07:58;101282.53;;;11.13;86.29
20983;BME280;10650;51.528;6.748;2023-03-21T06:10:27;101286.13;;;11.14;86.01
20983;BME280;10650;51.528;6.748;2023-03-21T06:12:54;101283.44;;;11.14;85.95
20983;BME280;10650;51.528;6.748;2023-03-21T06:15:22;101288.78;;;11.12;86.38
20983;BME280;10650;51.528;6.748;2023-03-21T06:17:50;101291.47;;;11.12;86.46
20983;BME280;10650;51.528;6.748;2023-03-21T06:20:18;101288.78;;;11.17;86.17
20983;BME280;10650;51.528;6.748;2023-03-21T06:22:46;101283.41;;;11.18;85.77
20983;BME280;10650;51.528;6.748;2023-03-21T06:25:14;101282.53;;;11.19;86.29
20983;BME280;10650;51.528;6.748;2023-03-21T06:27:43;101286.06;;;11.21;86.56
20983;BME280;10650;51.528;6.748;2023-03-21T06:30:12;101285.19;;;11.25;85.95
20983;BME280;10650;51.528;6.748;2023-03-21T06:32:39;101288.75;;;11.28;85.56
20983;BME280;10650;51.528;6.748;2023-03-21T06:35:08;101292.31;;;11.30;85.63
20983;BME280;10650;51.528;6.748;2023-03-21T06:37:35;101295.84;;;11.30;85.13
20983;BME280;10650;51.528;6.748;2023-03-21T06:40:04;101289.63;;;11.28;85.04
20983;BME280;10650;51.528;6.748;2023-03-21T06:42:34;101287.84;;;11.29;84.71
20983;BME280;10650;51.528;6.748;2023-03-21T06:45:04;101290.53;;;11.27;85.15
20983;BME280;10650;51.528;6.748;2023-03-21T06:47:32;101286.06;;;11.24;84.40
20983;BME280;10650;51.528;6.748;2023-03-21T06:50:00;101284.28;;;11.27;84.30
20983;BME280;10650;51.528;6.748;2023-03-21T06:52:28;101284.28;;;11.30;83.50
20983;BME280;10650;51.528;6.748;2023-03-21T06:54:56;101288.72;;;11.35;83.39
20983;BME280;10650;51.528;6.748;2023-03-21T06:57:24;101285.16;;;11.39;83.19
20983;BME280;10650;51.528;6.748;2023-03-21T06:59:51;101277.13;;;11.39;82.55
20983;BME280;10650;51.528;6.748;2023-03-21T07:02:21;101283.34;;;11.43;81.98
20983;BME280;10650;51.528;6.748;2023-03-21T07:04:48;101273.56;;;11.42;82.57
20983;BME280;10650;51.528;6.748;2023-03-21T07:07:16;101272.63;;;11.48;82.10
20983;BME280;10650;51.528;6.748;2023-03-21T07:09:47;101267.28;;;11.45;82.35
20983;BME280;10650;51.528;6.748;2023-03-21T07:12:26;101280.66;;;11.45;82.57
20983;BME280;10650;51.528;6.748;2023-03-21T07:14:59;101279.75;;;11.47;82.02
20983;BME280;10650;51.528;6.748;2023-03-21T07:17:35;101275.28;;;11.52;81.75
20983;BME280;10650;51.528;6.748;2023-03-21T07:20:05;101281.50;;;11.54;81.50
20983;BME280;10650;51.528;6.748;2023-03-21T07:22:37;101275.28;;;11.54;80.92
20983;BME280;10650;51.528;6.748;2023-03-21T07:25:06;101277.06;;;11.56;81.15
20983;BME280;10650;51.528;6.748;2023-03-21T07:27:34;101275.22;;;11.62;81.40
20983;BME280;10650;51.528;6.748;2023-03-21T07:30:04;101272.53;;;11.65;81.29
20983;BME280;10650;51.528;6.748;2023-03-21T07:32:34;101273.38;;;11.74;81.26
20983;BME280;10650;51.528;6.748;2023-03-21T07:35:05;101271.56;;;11.80;80.30
20983;BME280;10650;51.528;6.748;2023-03-21T07:37:33;101269.78;;;11.80;79.99
20983;BME280;10650;51.528;6.748;2023-03-21T07:40:04;101267.06;;;11.83;79.75
20983;BME280;10650;51.528;6.748;2023-03-21T07:42:36;101262.63;;;11.87;79.21
20983;BME280;10650;51.528;6.748;2023-03-21T07:45:05;101268.81;;;11.90;78.99
20983;BME280;10650;51.528;6.748;2023-03-21T07:47:35;101267.03;;;11.92;78.60
20983;BME280;10650;51.528;6.748;2023-03-21T07:50:03;101266.13;;;11.92;78.04
20983;BME280;10650;51.528;6.748;2023-03-21T07:52:31;101273.31;;;11.90;78.34
20983;BME280;10650;51.528;6.748;2023-03-21T07:54:59;101267.94;;;11.90;78.20
20983;BME280;10650;51.528;6.748;2023-03-21T07:57:26;101274.19;;;11.89;78.86
20983;BME280;10650;51.528;6.748;2023-03-21T07:59:54;101267.06;;;11.94;78.78
20983;BME280;10650;51.528;6.748;2023-03-21T08:02:22;101261.66;;;12.00;78.75
20983;BME280;10650;51.528;6.748;2023-03-21T08:04:52;101264.31;;;12.02;78.84
20983;BME280;10650;51.528;6.748;2023-03-21T08:07:20;101271.47;;;12.03;79.16
20983;BME280;10650;51.528;6.748;2023-03-21T08:09:47;101273.28;;;12.02;78.81
20983;BME280;10650;51.528;6.748;2023-03-21T08:12:15;101272.34;;;12.06;78.61
20983;BME280;10650;51.528;6.748;2023-03-21T08:14:43;101272.31;;;12.09;78.92
20983;BME280;10650;51.528;6.748;2023-03-21T08:17:11;101270.50;;;12.11;79.34
20983;BME280;10650;51.528;6.748;2023-03-21T08:19:39;101270.47;;;12.16;79.46
20983;BME280;10650;51.528;6.748;2023-03-21T08:22:08;101274.91;;;12.20;79.60
20983;BME280;10650;51.528;6.748;2023-03-21T08:24:36;101271.31;;;12.24;80.41
20983;BME280;10650;51.528;6.748;2023-03-21T08:27:04;101267.72;;;12.28;80.06
20983;BME280;10650;51.528;6.748;2023-03-21T08:29:31;101276.63;;;12.34;80.11
20983;BME280;10650;51.528;6.748;2023-03-21T08:31:59;101271.19;;;12.40;79.42
20983;BME280;10650;51.528;6.748;2023-03-21T08:34:27;101271.19;;;12.40;79.59
20983;BME280;10650;51.528;6.748;2023-03-21T08:36:55;101272.06;;;12.42;79.40
20983;BME280;10650;51.528;6.748;2023-03-21T08:39:34;101275.69;;;12.39;79.63
20983;BME280;10650;51.528;6.748;2023-03-21T08:42:02;101284.56;;;12.43;80.31
20983;BME280;10650;51.528;6.748;2023-03-21T08:44:30;101289.03;;;12.44;79.81
20983;BME280;10650;51.528;6.748;2023-03-21T08:46:58;101288.13;;;12.46;80.50
20983;BME280;10650;51.528;6.748;2023-03-21T08:49:26;101285.44;;;12.46;81.02
20983;BME280;10650;51.528;6.748;2023-03-21T08:51:54;101281.84;;;12.48;80.55
20983;BME280;10650;51.528;6.748;2023-03-21T08:54:22;101285.44;;;12.46;80.48
20983;BME280;10650;51.528;6.748;2023-03-21T08:56:51;101285.44;;;12.45;80.76
20983;BME280;10650;51.528;6.748;2023-03-21T08:59:19;101282.75;;;12.50;81.02
20983;BME280;10650;51.528;6.748;2023-03-21T09:01:47;101277.31;;;12.56;81.39
20983;BME280;10650;51.528;6.748;2023-03-21T09:04:15;101281.72;;;12.63;81.09
20983;BME280;10650;51.528;6.748;2023-03-21T09:06:44;101283.50;;;12.66;81.02
20983;BME280;10650;51.528;6.748;2023-03-21T09:09:14;101288.78;;;12.72;81.22
20983;BME280;10650;51.528;6.748;2023-03-21T09:11:42;101285.22;;;12.73;81.16
20983;BME280;10650;51.528;6.748;2023-03-21T09:14:11;101282.59;;;12.68;81.56
20983;BME280;10650;51.528;6.748;2023-03-21T09:16:39;101284.38;;;12.66;81.85
20983;BME280;10650;51.528;6.748;2023-03-21T09:19:07;101281.72;;;12.64;82.37
20983;BME280;10650;51.528;6.748;2023-03-21T09:21:35;101285.31;;;12.60;82.13
20983;BME280;10650;51.528;6.748;2023-03-21T09:24:04;101288.97;;;12.50;81.59
20983;BME280;10650;51.528;6.748;2023-03-21T09:26:32;101275.63;;;12.45;81.44
20983;BME280;10650;51.528;6.748;2023-03-21T09:29:00;101279.25;;;12.38;82.35
20983;BME280;10650;51.528;6.748;2023-03-21T09:31:32;101276.56;;;12.38;82.48
20983;BME280;10650;51.528;6.748;2023-03-21T09:34:00;101281.03;;;12.38;83.20
20983;BME280;10650;51.528;6.748;2023-03-21T09:36:29;101276.53;;;12.43;84.38
20983;BME280;10650;51.528;6.748;2023-03-21T09:38:57;101272.84;;;12.55;84.89
20983;BME280;10650;51.528;6.748;2023-03-21T09:41:38;101271.88;;;12.67;82.93
20983;BME280;10650;51.528;6.748;2023-03-21T09:44:20;101275.34;;;12.75;83.48
20983;BME280;10650;51.528;6.748;2023-03-21T09:46:58;101271.69;;;12.87;83.40
20983;BME280;10650;51.528;6.748;2023-03-21T09:49:30;101270.66;;;13.00;84.12
20983;BME280;10650;51.528;6.748;2023-03-21T09:52:03;101277.69;;;13.10;83.17
20983;BME280;10650;51.528;6.748;2023-03-21T09:54:39;101272.25;;;13.18;82.77
20983;BME280;10650;51.528;6.748;2023-03-21T09:57:15;101268.59;;;13.22;82.86
20983;BME280;10650;51.528;6.748;2023-03-21T09:59:47;101267.75;;;13.20;81.72
20983;BME280;10650;51.528;6.748;2023-03-21T10:02:28;101256.13;;;13.20;81.36
20983;BME280;10650;51.528;6.748;2023-03-21T10:05:09;101255.22;;;13.19;81.35
20983;BME280;10650;51.528;6.748;2023-03-21T10:07:39;101256.16;;;13.18;80.63
20983;BME280;10650;51.528;6.748;2023-03-21T10:10:12;101258.81;;;13.20;80.41
20983;BME280;10650;51.528;6.748;2023-03-21T10:12:43;101253.47;;;13.16;80.24
20983;BME280;10650;51.528;6.748;2023-03-21T10:15:16;101253.44;;;13.20;80.30
20983;BME280;10650;51.528;6.748;2023-03-21T10:17:47;101248.06;;;13.21;80.27
20983;BME280;10650;51.528;6.748;2023-03-21T10:20:18;101254.34;;;13.19;80.35
20983;BME280;10650;51.528;6.748;2023-03-21T10:22:48;101239.09;;;13.22;80.91
20983;BME280;10650;51.528;6.748;2023-03-21T10:25:18;101227.41;;;13.28;81.32
20983;BME280;10650;51.528;6.748;2023-03-21T10:27:48;101221.09;;;13.32;81.39
20983;BME280;10650;51.528;6.748;2023-03-21T10:30:24;101220.31;;;13.25;80.54
20983;BME280;10650;51.528;6.748;2023-03-21T10:32:56;101219.47;;;13.20;80.43
20983;BME280;10650;51.528;6.748;2023-03-21T10:35:28;101217.78;;;13.10;80.39
20983;BME280;10650;51.528;6.748;2023-03-21T10:37:58;101219.63;;;13.05;81.09
20983;BME280;10650;51.528;6.748;2023-03-21T10:40:26;101218.78;;;13.01;81.37
20983;BME280;10650;51.528;6.748;2023-03-21T10:42:54;101211.69;;;12.95;81.55
20983;BME280;10650;51.528;6.748;2023-03-21T10:45:23;101210.84;;;12.92;81.53
20983;BME280;10650;51.528;6.748;2023-03-21T10:47:51;101204.63;;;12.88;82.09
20983;BME280;10650;51.528;6.748;2023-03-21T10:50:28;101195.69;;;12.88;82.04
20983;BME280;10650;51.528;6.748;2023-03-21T10:52:58;101191.19;;;12.91;82.67
20983;BME280;10650;51.528;6.748;2023-03-21T10:55:28;101187.59;;;12.91;82.35
20983;BME280;10650;51.528;6.748;2023-03-21T10:57:59;101192.06;;;12.92;82.50
20983;BME280;10650;51.528;6.748;2023-03-21T11:00:33;101175.00;;;12.99;82.51
20983;BME280;10650;51.528;6.748;2023-03-21T11:03:02;101168.63;;;13.08;82.33
20983;BME280;10650;51.528;6.748;2023-03-21T11:05:36;101165.78;;;13.20;82.19
20983;BME280;10650;51.528;6.748;2023-03-21T11:08:09;101162.09;;;13.30;82.17
20983;BME280;10650;51.528;6.748;2023-03-21T11:10:49;101166.44;;;13.41;81.28
20983;BME280;10650;51.528;6.748;2023-03-21T11:13:22;101161.72;;;13.57;81.44
20983;BME280;10650;51.528;6.748;2023-03-21T11:15:53;101166.03;;;13.70;81.39
20983;BME280;10650;51.528;6.748;2023-03-21T11:18:22;101169.50;;;13.77;81.05
20983;BME280;10650;51.528;6.748;2023-03-21T11:20:54;101163.16;;;13.84;80.61
20983;BME280;10650;51.528;6.748;2023-03-21T11:23:25;101164.97;;;13.80;79.86
20983;BME280;10650;51.528;6.748;2023-03-21T11:25:53;101167.72;;;13.77;79.18
20983;BME280;10650;51.528;6.748;2023-03-21T11:28:24;101161.44;;;13.78;79.61
20983;BME280;10650;51.528;6.748;2023-03-21T11:31:00;101152.41;;;13.81;79.39
20983;BME280;10650;51.528;6.748;2023-03-21T11:33:32;101157.78;;;13.81;78.58
20983;BME280;10650;51.528;6.748;2023-03-21T11:36:05;101155.09;;;13.82;78.67
20983;BME280;10650;51.528;6.748;2023-03-21T11:38:36;101146.09;;;13.85;78.56
20983;BME280;10650;51.528;6.748;2023-03-21T11:41:06;101144.16;;;13.95;78.37
20983;BME280;10650;51.528;6.748;2023-03-21T11:43:34;101144.97;;;14.00;77.90
20983;BME280;10650;51.528;6.748;2023-03-21T11:46:06;101143.00;;;14.11;77.95
20983;BME280;10650;51.528;6.748;2023-03-21T11:48:38;101136.59;;;14.18;78.13
20983;BME280;10650;51.528;6.748;2023-03-21T11:51:19;101142.63;;;14.30;78.33
20983;BME280;10650;51.528;6.748;2023-03-21T11:53:54;101138.09;;;14.35;77.36
20983;BME280;10650;51.528;6.748;2023-03-21T11:56:27;101140.69;;;14.40;77.20
20983;BME280;10650;51.528;6.748;2023-03-21T11:59:12;101136.03;;;14.49;76.78
20983;BME280;10650;51.528;6.748;2023-03-21T12:01:52;101133.22;;;14.56;76.20
20983;BME280;10650;51.528;6.748;2023-03-21T12:04:41;101129.59;;;14.58;75.86
20983;BME280;10650;51.528;6.748;2023-03-21T12:07:26;101129.50;;;14.61;75.53
20983;BME280;10650;51.528;6.748;2023-03-21T12:10:25;101128.63;;;14.64;75.21
20983;BME280;10650;51.528;6.748;2023-03-21T12:13:02;101127.78;;;14.60;74.87
20983;BME280;10650;51.528;6.748;2023-03-21T12:15:35;101120.78;;;14.51;73.96
20983;BME280;10650;51.528;6.748;2023-03-21T12:18:15;101121.78;;;14.46;74.54
20983;BME280;10650;51.528;6.748;2023-03-21T12:20:50;101122.75;;;14.42;74.24
20983;BME280;10650;51.528;6.748;2023-03-21T12:23:29;101124.59;;;14.38;74.23
20983;BME280;10650;51.528;6.748;2023-03-21T12:26:07;101120.34;;;14.26;73.93
20983;BME280;10650;51.528;6.748;2023-03-21T12:28:44;101108.81;;;14.18;73.86
20983;BME280;10650;51.528;6.748;2023-03-21T12:31:20;101111.59;;;14.13;73.84
20983;BME280;10650;51.528;6.748;2023-03-21T12:34:08;101108.03;;;14.13;73.61
20983;BME280;10650;51.528;6.748;2023-03-21T12:36:50;101107.97;;;14.17;73.46
20983;BME280;10650;51.528;6.748;2023-03-21T12:39:28;101103.38;;;14.24;73.45
20983;BME280;10650;51.528;6.748;2023-03-21T12:42:08;101102.34;;;14.30;73.09
20983;BME280;10650;51.528;6.748;2023-03-21T12:44:42;101105.06;;;14.28;72.43
20983;BME280;10650;51.528;6.748;2023-03-21T12:47:14;101095.22;;;14.29;72.41
20983;BME280;10650;51.528;6.748;2023-03-21T12:49:46;101084.44;;;14.30;72.29
20983;BME280;10650;51.528;6.748;2023-03-21T12:52:21;101085.22;;;14.35;71.87
20983;BME280;10650;51.528;6.748;2023-03-21T12:54:55;101093.16;;;14.43;71.79
20983;BME280;10650;51.528;6.748;2023-03-21T12:57:29;101083.94;;;14.55;72.22
20983;BME280;10650;51.528;6.748;2023-03-21T13:00:02;101083.00;;;14.58;71.30
20983;BME280;10650;51.528;6.748;2023-03-21T13:02:38;101073.09;;;14.60;70.88
20983;BME280;10650;51.528;6.748;2023-03-21T13:05:15;101068.59;;;14.63;70.82
20983;BME280;10650;51.528;6.748;2023-03-21T13:07:46;101060.47;;;14.65;71.13
20983;BME280;10650;51.528;6.748;2023-03-21T13:10:19;101052.38;;;14.66;70.86
20983;BME280;10650;51.528;6.748;2023-03-21T13:12:57;101050.44;;;14.75;70.98
20983;BME280;10650;51.528;6.748;2023-03-21T13:15:56;101031.75;;;14.67;70.57
20983;BME280;10650;51.528;6.748;2023-03-21T13:18:32;101030.69;;;14.74;70.49
20983;BME280;10650;51.528;6.748;2023-03-21T13:21:09;101027.28;;;14.67;69.98
20983;BME280;10650;51.528;6.748;2023-03-21T13:23:40;101032.53;;;14.72;70.16